sensor_id;sensor_type;location;lat;lon;timestamp;pressure;altitude;pressure_sealevel;temperature
64394;BMP280;50712;49.506;10.400;2022-10-16T00:00:08;97892.59;;;19.09
64394;BMP280;50712;49.506;10.400;2022-10-16T00:00:39;97896.84;;;19.10
64394;BMP280;50712;49.506;10.400;2022-10-16T00:01:12;97896.09;;;19.09
64394;BMP280;50712;49.506;10.400;2022-10-16T00:01:43;97896.09;;;19.09
64394;BMP280;50712;49.506;10.400;2022-10-16T00:02:13;97898.13;;;19.09
64394;BMP280;50712;49.506;10.400;2022-10-16T00:02:44;97900.13;;;19.08
64394;BMP280;50712;49.506;10.400;2022-10-16T00:03:17;97894.59;;;19.08
64394;BMP280;50712;49.506;10.400;2022-10-16T00:03:48;97906.41;;;19.09
64394;BMP280;50712;49.506;10.400;2022-10-16T00:04:19;97904.88;;;19.08
64394;BMP280;50712;49.506;10.400;2022-10-16T00:04:49;97895.84;;;19.07
64394;BMP280;50712;49.506;10.400;2022-10-16T00:05:19;97904.88;;;19.08
64394;BMP280;50712;49.506;10.400;2022-10-16T00:05:50;97895.84;;;19.07
64394;BMP280;50712;49.506;10.400;2022-10-16T00:06:20;97902.13;;;19.08
64394;BMP280;50712;49.506;10.400;2022-10-16T00:06:52;97897.88;;;19.07
64394;BMP280;50712;49.506;10.400;2022-10-16T00:07:22;97904.88;;;19.08
64394;BMP280;50712;49.506;10.400;2022-10-16T00:07:52;97902.63;;;19.06
64394;BMP280;50712;49.506;10.400;2022-10-16T00:08:23;97906.88;;;19.07
64394;BMP280;50712;49.506;10.400;2022-10-16T00:08:53;97906.88;;;19.07
64394;BMP280;50712;49.506;10.400;2022-10-16T00:09:24;97908.91;;;19.07
64394;BMP280;50712;49.506;10.400;2022-10-16T00:09:55;97901.88;;;19.06
64394;BMP280;50712;49.506;10.400;2022-10-16T00:10:25;97910.16;;;19.06
64394;BMP280;50712;49.506;10.400;2022-10-16T00:11:38;97908.16;;;19.06
64394;BMP280;50712;49.506;10.400;2022-10-16T00:11:51;97913.69;;;19.06
64394;BMP280;50712;49.506;10.400;2022-10-16T00:12:21;97907.41;;;19.06
64394;BMP280;50712;49.506;10.400;2022-10-16T00:12:52;97906.63;;;19.05
64394;BMP280;50712;49.506;10.400;2022-10-16T00:13:22;97907.88;;;19.04
64394;BMP280;50712;49.506;10.400;2022-10-16T00:13:55;97911.41;;;19.05
64394;BMP280;50712;49.506;10.400;2022-10-16T00:14:27;97901.63;;;19.04
64394;BMP280;50712;49.506;10.400;2022-10-16T00:14:57;97910.66;;;19.04
64394;BMP280;50712;49.506;10.400;2022-10-16T00:15:28;97908.41;;;19.03
64394;BMP280;50712;49.506;10.400;2022-10-16T00:15:59;97898.63;;;19.02
64394;BMP280;50712;49.506;10.400;2022-10-16T00:16:30;97906.91;;;19.02
64394;BMP280;50712;49.506;10.400;2022-10-16T00:17:01;97895.09;;;19.01
64394;BMP280;50712;49.506;10.400;2022-10-16T00:17:31;97895.63;;;19.00
64394;BMP280;50712;49.506;10.400;2022-10-16T00:18:03;97898.41;;;19.00
64394;BMP280;50712;49.506;10.400;2022-10-16T00:18:34;97895.63;;;19.00
64394;BMP280;50712;49.506;10.400;2022-10-16T00:19:05;97881.06;;;18.99
64394;BMP280;50712;49.506;10.400;2022-10-16T00:19:35;97890.13;;;19.00
64394;BMP280;50712;49.506;10.400;2022-10-16T00:20:05;97890.59;;;18.98
64394;BMP280;50712;49.506;10.400;2022-10-16T00:20:36;97886.34;;;18.97
64394;BMP280;50712;49.506;10.400;2022-10-16T00:21:07;97892.59;;;18.98
64394;BMP280;50712;49.506;10.400;2022-10-16T00:21:40;97890.34;;;18.96
64394;BMP280;50712;49.506;10.400;2022-10-16T00:22:12;97891.09;;;18.97
64394;BMP280;50712;49.506;10.400;2022-10-16T00:22:42;97893.88;;;18.97
64394;BMP280;50712;49.506;10.400;2022-10-16T00:23:12;97895.88;;;18.96
64394;BMP280;50712;49.506;10.400;2022-10-16T00:23:43;97891.88;;;18.97
64394;BMP280;50712;49.506;10.400;2022-10-16T00:24:13;97898.63;;;18.96
64394;BMP280;50712;49.506;10.400;2022-10-16T00:24:44;97900.63;;;18.96
64394;BMP280;50712;49.506;10.400;2022-10-16T00:25:14;97896.63;;;18.97
64394;BMP280;50712;49.506;10.400;2022-10-16T00:25:45;97898.63;;;18.96
64394;BMP280;50712;49.506;10.400;2022-10-16T00:26:25;97905.69;;;18.97
64394;BMP280;50712;49.506;10.400;2022-10-16T00:26:56;97908.44;;;18.97
64394;BMP280;50712;49.506;10.400;2022-10-16T00:27:27;97902.91;;;18.97
64394;BMP280;50712;49.506;10.400;2022-10-16T00:27:57;97897.88;;;18.96
64394;BMP280;50712;49.506;10.400;2022-10-16T00:28:27;97904.16;;;18.96
64394;BMP280;50712;49.506;10.400;2022-10-16T00:28:58;97901.41;;;18.96
64394;BMP280;50712;49.506;10.400;2022-10-16T00:29:29;97896.63;;;18.97
64394;BMP280;50712;49.506;10.400;2022-10-16T00:29:59;97898.63;;;18.96
64394;BMP280;50712;49.506;10.400;2022-10-16T00:30:29;97902.16;;;18.97
64394;BMP280;50712;49.506;10.400;2022-10-16T00:31:02;97904.91;;;18.97
64394;BMP280;50712;49.506;10.400;2022-10-16T00:31:34;97903.41;;;18.96
64394;BMP280;50712;49.506;10.400;2022-10-16T00:32:04;97900.63;;;18.96
64394;BMP280;50712;49.506;10.400;2022-10-16T00:32:34;97900.63;;;18.96
64394;BMP280;50712;49.506;10.400;2022-10-16T00:33:05;97904.16;;;18.96
64394;BMP280;50712;49.506;10.400;2022-10-16T00:33:36;97900.63;;;18.96
64394;BMP280;50712;49.506;10.400;2022-10-16T00:34:07;97902.66;;;18.95
64394;BMP280;50712;49.506;10.400;2022-10-16T00:34:38;97897.88;;;18.96
64394;BMP280;50712;49.506;10.400;2022-10-16T00:35:08;97899.91;;;18.95
64394;BMP280;50712;49.506;10.400;2022-10-16T00:35:39;97901.91;;;18.95
64394;BMP280;50712;49.506;10.400;2022-10-16T00:36:10;97899.91;;;18.95
64394;BMP280;50712;49.506;10.400;2022-10-16T00:36:43;97899.16;;;18.95
64394;BMP280;50712;49.506;10.400;2022-10-16T00:37:13;97896.38;;;18.95
64394;BMP280;50712;49.506;10.400;2022-10-16T00:37:43;97898.38;;;18.94
64394;BMP280;50712;49.506;10.400;2022-10-16T00:38:14;97895.13;;;18.96
64394;BMP280;50712;49.506;10.400;2022-10-16T00:38:44;97891.63;;;18.95
64394;BMP280;50712;49.506;10.400;2022-10-16T00:39:15;97897.16;;;18.95
64394;BMP280;50712;49.506;10.400;2022-10-16T00:39:45;97897.16;;;18.95
64394;BMP280;50712;49.506;10.400;2022-10-16T00:40:16;97890.88;;;18.95
64394;BMP280;50712;49.506;10.400;2022-10-16T00:40:46;97895.88;;;18.96
64394;BMP280;50712;49.506;10.400;2022-10-16T00:41:17;97896.38;;;18.95
64394;BMP280;50712;49.506;10.400;2022-10-16T00:41:47;97899.16;;;18.95
64394;BMP280;50712;49.506;10.400;2022-10-16T00:42:18;97896.38;;;18.95
64394;BMP280;50712;49.506;10.400;2022-10-16T00:42:49;97891.63;;;18.95
64394;BMP280;50712;49.506;10.400;2022-10-16T00:43:32;97894.91;;;18.94
64394;BMP280;50712;49.506;10.400;2022-10-16T00:44:41;97895.63;;;18.94
64394;BMP280;50712;49.506;10.400;2022-10-16T00:45:13;97888.63;;;18.93
64394;BMP280;50712;49.506;10.400;2022-10-16T00:45:44;97887.09;;;18.92
64394;BMP280;50712;49.506;10.400;2022-10-16T00:46:56;97891.09;;;18.91
64394;BMP280;50712;49.506;10.400;2022-10-16T00:47:45;97900.16;;;18.92
64394;BMP280;50712;49.506;10.400;2022-10-16T00:48:19;97892.41;;;18.90
64394;BMP280;50712;49.506;10.400;2022-10-16T00:48:51;97900.69;;;18.90
64394;BMP280;50712;49.506;10.400;2022-10-16T00:49:25;97906.22;;;18.90
64394;BMP280;50712;49.506;10.400;2022-10-16T00:49:58;97903.44;;;18.90
64394;BMP280;50712;49.506;10.400;2022-10-16T00:50:36;97901.94;;;18.89
64394;BMP280;50712;49.506;10.400;2022-10-16T00:51:07;97910.22;;;18.89
64394;BMP280;50712;49.506;10.400;2022-10-16T00:51:47;97901.94;;;18.89
64394;BMP280;50712;49.506;10.400;2022-10-16T00:52:20;97907.44;;;18.89
64394;BMP280;50712;49.506;10.400;2022-10-16T00:52:51;97909.44;;;18.89
64394;BMP280;50712;49.506;10.400;2022-10-16T00:53:22;97908.69;;;18.88
64394;BMP280;50712;49.506;10.400;2022-10-16T00:53:55;97912.22;;;18.89
64394;BMP280;50712;49.506;10.400;2022-10-16T00:54:27;97911.44;;;18.88
64394;BMP280;50712;49.506;10.400;2022-10-16T00:55:02;97903.16;;;18.88
64394;BMP280;50712;49.506;10.400;2022-10-16T00:55:34;97911.44;;;18.88
64394;BMP280;50712;49.506;10.400;2022-10-16T00:56:06;97907.97;;;18.88
64394;BMP280;50712;49.506;10.400;2022-10-16T00:56:36;97905.19;;;18.88
64394;BMP280;50712;49.506;10.400;2022-10-16T00:57:07;97907.19;;;18.87
64394;BMP280;50712;49.506;10.400;2022-10-16T00:57:37;97902.44;;;18.88
64394;BMP280;50712;49.506;10.400;2022-10-16T00:58:09;97907.19;;;18.87
64394;BMP280;50712;49.506;10.400;2022-10-16T00:58:39;97903.69;;;18.87
64394;BMP280;50712;49.506;10.400;2022-10-16T00:59:11;97900.91;;;18.87
64394;BMP280;50712;49.506;10.400;2022-10-16T00:59:55;97897.44;;;18.86
64394;BMP280;50712;49.506;10.400;2022-10-16T01:00:26;97895.41;;;18.87
64394;BMP280;50712;49.506;10.400;2022-10-16T01:00:56;97902.44;;;18.88
64394;BMP280;50712;49.506;10.400;2022-10-16T01:01:27;97896.16;;;18.87
64394;BMP280;50712;49.506;10.400;2022-10-16T01:01:58;97898.91;;;18.87
64394;BMP280;50712;49.506;10.400;2022-10-16T01:02:29;97898.16;;;18.87
64394;BMP280;50712;49.506;10.400;2022-10-16T01:03:01;97903.69;;;18.87
64394;BMP280;50712;49.506;10.400;2022-10-16T01:03:33;97900.91;;;18.87
64394;BMP280;50712;49.506;10.400;2022-10-16T01:04:06;97900.91;;;18.87
64394;BMP280;50712;49.506;10.400;2022-10-16T01:04:38;97903.69;;;18.87
64394;BMP280;50712;49.506;10.400;2022-10-16T01:05:14;97907.72;;;18.86
64394;BMP280;50712;49.506;10.400;2022-10-16T01:05:46;97901.69;;;18.87
64394;BMP280;50712;49.506;10.400;2022-10-16T01:06:28;97908.47;;;18.86
64394;BMP280;50712;49.506;10.400;2022-10-16T01:08:13;97900.69;;;18.85
64394;BMP280;50712;49.506;10.400;2022-10-16T01:09:39;97910.22;;;18.84
64394;BMP280;50712;49.506;10.400;2022-10-16T01:10:43;97910.97;;;18.84
64394;BMP280;50712;49.506;10.400;2022-10-16T01:11:28;97918.50;;;18.84
64394;BMP280;50712;49.506;10.400;2022-10-16T01:12:10;97909.47;;;18.83
64394;BMP280;50712;49.506;10.400;2022-10-16T01:13:39;97906.69;;;18.83
64394;BMP280;50712;49.506;10.400;2022-10-16T01:15:25;97917.00;;;18.83
64394;BMP280;50712;49.506;10.400;2022-10-16T01:16:44;97912.22;;;18.83
64394;BMP280;50712;49.506;10.400;2022-10-16T01:17:38;97916.22;;;18.82
64394;BMP280;50712;49.506;10.400;2022-10-16T01:18:26;97921.03;;;18.82
64394;BMP280;50712;49.506;10.400;2022-10-16T01:19:16;97917.53;;;18.81
64394;BMP280;50712;49.506;10.400;2022-10-16T01:20:37;97916.00;;;18.80
64394;BMP280;50712;49.506;10.400;2022-10-16T01:21:21;97918.00;;;18.80
64394;BMP280;50712;49.506;10.400;2022-10-16T01:21:55;97920.78;;;18.80
64394;BMP280;50712;49.506;10.400;2022-10-16T01:22:33;97920.00;;;18.79
64394;BMP280;50712;49.506;10.400;2022-10-16T01:24:41;97912.25;;;18.78
64394;BMP280;50712;49.506;10.400;2022-10-16T01:25:20;97919.78;;;18.77
64394;BMP280;50712;49.506;10.400;2022-10-16T01:27:50;97931.56;;;18.78
64394;BMP280;50712;49.506;10.400;2022-10-16T01:28:22;97924.56;;;18.77
64394;BMP280;50712;49.506;10.400;2022-10-16T01:30:10;97932.84;;;18.77
64394;BMP280;50712;49.506;10.400;2022-10-16T01:30:46;97931.31;;;18.76
64394;BMP280;50712;49.506;10.400;2022-10-16T01:31:18;97928.56;;;18.76
64394;BMP280;50712;49.506;10.400;2022-10-16T01:31:56;97923.03;;;18.76
64394;BMP280;50712;49.506;10.400;2022-10-16T01:33:24;97930.59;;;18.75
64394;BMP280;50712;49.506;10.400;2022-10-16T01:34:10;97925.06;;;18.75
64394;BMP280;50712;49.506;10.400;2022-10-16T01:34:47;97922.31;;;18.75
64394;BMP280;50712;49.506;10.400;2022-10-16T01:35:29;97925.06;;;18.75
64394;BMP280;50712;49.506;10.400;2022-10-16T01:36:21;97918.03;;;18.74
64394;BMP280;50712;49.506;10.400;2022-10-16T01:37:00;97920.78;;;18.74
64394;BMP280;50712;49.506;10.400;2022-10-16T01:37:36;97929.06;;;18.74
64394;BMP280;50712;49.506;10.400;2022-10-16T01:38:24;97925.06;;;18.75
64394;BMP280;50712;49.506;10.400;2022-10-16T01:39:01;97917.25;;;18.74
64394;BMP280;50712;49.506;10.400;2022-10-16T01:39:33;97922.78;;;18.74
64394;BMP280;50712;49.506;10.400;2022-10-16T01:40:09;97920.03;;;18.74
64394;BMP280;50712;49.506;10.400;2022-10-16T01:40:45;97924.78;;;18.73
64394;BMP280;50712;49.506;10.400;2022-10-16T01:42:08;97922.03;;;18.73
64394;BMP280;50712;49.506;10.400;2022-10-16T01:42:15;97922.56;;;18.72
64394;BMP280;50712;49.506;10.400;2022-10-16T01:42:50;97919.81;;;18.72
64394;BMP280;50712;49.506;10.400;2022-10-16T01:43:27;97919.03;;;18.71
64394;BMP280;50712;49.506;10.400;2022-10-16T01:44:04;97926.06;;;18.72
64394;BMP280;50712;49.506;10.400;2022-10-16T01:44:39;97923.28;;;18.72
64394;BMP280;50712;49.506;10.400;2022-10-16T01:45:11;97928.09;;;18.72
64394;BMP280;50712;49.506;10.400;2022-10-16T01:45:45;97921.81;;;18.71
64394;BMP280;50712;49.506;10.400;2022-10-16T01:46:16;97922.56;;;18.72
64394;BMP280;50712;49.506;10.400;2022-10-16T01:46:51;97930.09;;;18.71
64394;BMP280;50712;49.506;10.400;2022-10-16T01:47:24;97923.81;;;18.71
64394;BMP280;50712;49.506;10.400;2022-10-16T01:47:57;97928.81;;;18.72
64394;BMP280;50712;49.506;10.400;2022-10-16T01:48:30;97926.06;;;18.72
64394;BMP280;50712;49.506;10.400;2022-10-16T01:49:02;97925.31;;;18.72
64394;BMP280;50712;49.506;10.400;2022-10-16T01:49:34;97928.09;;;18.72
64394;BMP280;50712;49.506;10.400;2022-10-16T01:50:08;97930.84;;;18.72
64394;BMP280;50712;49.506;10.400;2022-10-16T01:50:40;97931.56;;;18.72
64394;BMP280;50712;49.506;10.400;2022-10-16T01:51:13;97933.59;;;18.72
64394;BMP280;50712;49.506;10.400;2022-10-16T01:51:47;97925.31;;;18.72
64394;BMP280;50712;49.506;10.400;2022-10-16T01:52:23;97931.56;;;18.72
64394;BMP280;50712;49.506;10.400;2022-10-16T01:52:56;97930.84;;;18.72
64394;BMP280;50712;49.506;10.400;2022-10-16T01:53:28;97925.31;;;18.72
64394;BMP280;50712;49.506;10.400;2022-10-16T01:54:00;97928.09;;;18.72
64394;BMP280;50712;49.506;10.400;2022-10-16T01:54:32;97928.09;;;18.72
64394;BMP280;50712;49.506;10.400;2022-10-16T01:55:06;97925.31;;;18.72
64394;BMP280;50712;49.506;10.400;2022-10-16T01:55:40;97923.28;;;18.72
64394;BMP280;50712;49.506;10.400;2022-10-16T01:56:15;97926.06;;;18.72
64394;BMP280;50712;49.506;10.400;2022-10-16T01:56:48;97932.34;;;18.73
64394;BMP280;50712;49.506;10.400;2022-10-16T01:57:20;97930.84;;;18.72
64394;BMP280;50712;49.506;10.400;2022-10-16T01:57:53;97931.56;;;18.72
64394;BMP280;50712;49.506;10.400;2022-10-16T01:58:25;97929.56;;;18.73
64394;BMP280;50712;49.506;10.400;2022-10-16T01:58:59;97932.34;;;18.73
64394;BMP280;50712;49.506;10.400;2022-10-16T01:59:35;97936.38;;;18.72
64394;BMP280;50712;49.506;10.400;2022-10-16T02:00:11;97934.34;;;18.72
64394;BMP280;50712;49.506;10.400;2022-10-16T02:00:44;97942.63;;;18.72
64394;BMP280;50712;49.506;10.400;2022-10-16T02:01:17;97937.09;;;18.72
64394;BMP280;50712;49.506;10.400;2022-10-16T02:01:51;97933.59;;;18.72
64394;BMP280;50712;49.506;10.400;2022-10-16T02:02:24;97933.59;;;18.72
64394;BMP280;50712;49.506;10.400;2022-10-16T02:02:58;97936.38;;;18.72
64394;BMP280;50712;49.506;10.400;2022-10-16T02:03:31;97928.81;;;18.72
64394;BMP280;50712;49.506;10.400;2022-10-16T02:04:04;97931.56;;;18.72
64394;BMP280;50712;49.506;10.400;2022-10-16T02:04:53;97927.31;;;18.71
64394;BMP280;50712;49.506;10.400;2022-10-16T02:05:29;97938.38;;;18.71
64394;BMP280;50712;49.506;10.400;2022-10-16T02:06:03;97936.09;;;18.69
64394;BMP280;50712;49.506;10.400;2022-10-16T02:06:33;97936.09;;;18.69
64394;BMP280;50712;49.506;10.400;2022-10-16T02:07:04;97934.59;;;18.68
64394;BMP280;50712;49.506;10.400;2022-10-16T02:07:36;97931.09;;;18.68
64394;BMP280;50712;49.506;10.400;2022-10-16T02:08:07;97924.06;;;18.67
64394;BMP280;50712;49.506;10.400;2022-10-16T02:08:37;97937.09;;;18.66
64394;BMP280;50712;49.506;10.400;2022-10-16T02:09:10;97933.59;;;18.66
64394;BMP280;50712;49.506;10.400;2022-10-16T02:09:41;97922.53;;;18.66
64394;BMP280;50712;49.506;10.400;2022-10-16T02:10:11;97925.31;;;18.66
64394;BMP280;50712;49.506;10.400;2022-10-16T02:10:41;97929.59;;;18.67
64394;BMP280;50712;49.506;10.400;2022-10-16T02:11:12;97928.06;;;18.66
64394;BMP280;50712;49.506;10.400;2022-10-16T02:11:43;97930.09;;;18.65
64394;BMP280;50712;49.506;10.400;2022-10-16T02:12:25;97931.59;;;18.66
64394;BMP280;50712;49.506;10.400;2022-10-16T02:13:18;97920.53;;;18.66
64394;BMP280;50712;49.506;10.400;2022-10-16T02:14:00;97926.06;;;18.66
64394;BMP280;50712;49.506;10.400;2022-10-16T02:14:33;97926.81;;;18.67
64394;BMP280;50712;49.506;10.400;2022-10-16T02:15:04;97916.53;;;18.67
64394;BMP280;50712;49.506;10.400;2022-10-16T02:15:35;97927.56;;;18.67
64394;BMP280;50712;49.506;10.400;2022-10-16T02:16:06;97922.06;;;18.67
64394;BMP280;50712;49.506;10.400;2022-10-16T02:16:38;97924.06;;;18.67
64394;BMP280;50712;49.506;10.400;2022-10-16T02:17:16;97921.31;;;18.67
64394;BMP280;50712;49.506;10.400;2022-10-16T02:17:47;97926.81;;;18.67
64394;BMP280;50712;49.506;10.400;2022-10-16T02:18:18;97921.31;;;18.67
64394;BMP280;50712;49.506;10.400;2022-10-16T02:18:49;97927.56;;;18.67
64394;BMP280;50712;49.506;10.400;2022-10-16T02:19:19;97930.34;;;18.67
64394;BMP280;50712;49.506;10.400;2022-10-16T02:19:52;97920.06;;;18.68
64394;BMP280;50712;49.506;10.400;2022-10-16T02:20:25;97925.56;;;18.68
64394;BMP280;50712;49.506;10.400;2022-10-16T02:21:00;97926.31;;;18.68
64394;BMP280;50712;49.506;10.400;2022-10-16T02:21:41;97923.56;;;18.68
64394;BMP280;50712;49.506;10.400;2022-10-16T02:22:57;97925.03;;;18.69
64394;BMP280;50712;49.506;10.400;2022-10-16T02:23:41;97925.03;;;18.69
64394;BMP280;50712;49.506;10.400;2022-10-16T02:24:28;97924.28;;;18.69
64394;BMP280;50712;49.506;10.400;2022-10-16T02:25:29;97917.53;;;18.70
64394;BMP280;50712;49.506;10.400;2022-10-16T02:26:03;97923.81;;;18.71
64394;BMP280;50712;49.506;10.400;2022-10-16T02:26:40;97921.03;;;18.71
64394;BMP280;50712;49.506;10.400;2022-10-16T02:27:13;97921.81;;;18.71
64394;BMP280;50712;49.506;10.400;2022-10-16T02:27:54;97919.81;;;18.72
64394;BMP280;50712;49.506;10.400;2022-10-16T02:28:37;97919.03;;;18.71
64394;BMP280;50712;49.506;10.400;2022-10-16T02:29:13;97919.03;;;18.71
64394;BMP280;50712;49.506;10.400;2022-10-16T02:29:49;97926.06;;;18.72
64394;BMP280;50712;49.506;10.400;2022-10-16T02:30:28;97922.56;;;18.72
64394;BMP280;50712;49.506;10.400;2022-10-16T02:31:04;97923.28;;;18.72
64394;BMP280;50712;49.506;10.400;2022-10-16T02:31:40;97928.81;;;18.72
64394;BMP280;50712;49.506;10.400;2022-10-16T02:32:14;97923.28;;;18.72
64394;BMP280;50712;49.506;10.400;2022-10-16T02:32:47;97923.28;;;18.72
64394;BMP280;50712;49.506;10.400;2022-10-16T02:33:18;97923.28;;;18.72
64394;BMP280;50712;49.506;10.400;2022-10-16T02:33:51;97926.06;;;18.72
64394;BMP280;50712;49.506;10.400;2022-10-16T02:34:24;97928.09;;;18.72
64394;BMP280;50712;49.506;10.400;2022-10-16T02:34:56;97926.81;;;18.73
64394;BMP280;50712;49.506;10.400;2022-10-16T02:35:28;97923.28;;;18.72
64394;BMP280;50712;49.506;10.400;2022-10-16T02:36:00;97929.56;;;18.73
64394;BMP280;50712;49.506;10.400;2022-10-16T02:36:31;97934.34;;;18.72
64394;BMP280;50712;49.506;10.400;2022-10-16T02:37:03;97941.34;;;18.73
64394;BMP280;50712;49.506;10.400;2022-10-16T02:37:35;97936.38;;;18.72
64394;BMP280;50712;49.506;10.400;2022-10-16T02:38:08;97940.63;;;18.73
64394;BMP280;50712;49.506;10.400;2022-10-16T02:38:39;97935.81;;;18.73
64394;BMP280;50712;49.506;10.400;2022-10-16T02:39:10;97940.63;;;18.73
64394;BMP280;50712;49.506;10.400;2022-10-16T02:39:41;97946.88;;;18.73
64394;BMP280;50712;49.506;10.400;2022-10-16T02:40:12;97944.09;;;18.73
64394;BMP280;50712;49.506;10.400;2022-10-16T02:40:43;97944.09;;;18.73
64394;BMP280;50712;49.506;10.400;2022-10-16T02:41:16;97943.38;;;18.73
64394;BMP280;50712;49.506;10.400;2022-10-16T02:41:47;97947.63;;;18.74
64394;BMP280;50712;49.506;10.400;2022-10-16T02:42:18;97944.09;;;18.73
64394;BMP280;50712;49.506;10.400;2022-10-16T02:42:50;97944.09;;;18.73
64394;BMP280;50712;49.506;10.400;2022-10-16T02:43:22;97946.13;;;18.73
64394;BMP280;50712;49.506;10.400;2022-10-16T02:43:52;97940.63;;;18.73
64394;BMP280;50712;49.506;10.400;2022-10-16T02:44:22;97940.63;;;18.73
64394;BMP280;50712;49.506;10.400;2022-10-16T02:44:53;97944.09;;;18.73
64394;BMP280;50712;49.506;10.400;2022-10-16T02:45:23;97940.63;;;18.73
64394;BMP280;50712;49.506;10.400;2022-10-16T02:45:54;97943.38;;;18.73
64394;BMP280;50712;49.506;10.400;2022-10-16T02:46:24;97949.63;;;18.73
64394;BMP280;50712;49.506;10.400;2022-10-16T02:46:55;97937.84;;;18.73
64394;BMP280;50712;49.506;10.400;2022-10-16T02:47:25;97952.38;;;18.73
64394;BMP280;50712;49.506;10.400;2022-10-16T02:47:56;97948.91;;;18.73
64394;BMP280;50712;49.506;10.400;2022-10-16T02:48:26;97943.38;;;18.73
64394;BMP280;50712;49.506;10.400;2022-10-16T02:48:57;97953.16;;;18.74
64394;BMP280;50712;49.506;10.400;2022-10-16T02:49:27;97961.44;;;18.74
64394;BMP280;50712;49.506;10.400;2022-10-16T02:49:57;97954.41;;;18.73
64394;BMP280;50712;49.506;10.400;2022-10-16T02:50:28;97946.13;;;18.73
64394;BMP280;50712;49.506;10.400;2022-10-16T02:50:58;97955.16;;;18.73
64394;BMP280;50712;49.506;10.400;2022-10-16T02:51:28;97949.63;;;18.73
64394;BMP280;50712;49.506;10.400;2022-10-16T02:51:59;97942.63;;;18.72
64394;BMP280;50712;49.506;10.400;2022-10-16T02:52:29;97939.84;;;18.72
64394;BMP280;50712;49.506;10.400;2022-10-16T02:53:00;97946.88;;;18.73
64394;BMP280;50712;49.506;10.400;2022-10-16T02:53:30;97942.09;;;18.74
64394;BMP280;50712;49.506;10.400;2022-10-16T02:54:01;97940.63;;;18.73
64394;BMP280;50712;49.506;10.400;2022-10-16T02:54:32;97938.59;;;18.73
64394;BMP280;50712;49.506;10.400;2022-10-16T02:55:02;97939.84;;;18.72
64394;BMP280;50712;49.506;10.400;2022-10-16T02:55:33;97937.09;;;18.72
64394;BMP280;50712;49.506;10.400;2022-10-16T02:56:03;97935.81;;;18.73
64394;BMP280;50712;49.506;10.400;2022-10-16T02:56:34;97941.34;;;18.73
64394;BMP280;50712;49.506;10.400;2022-10-16T02:57:04;97937.84;;;18.73
64394;BMP280;50712;49.506;10.400;2022-10-16T02:57:35;97937.09;;;18.72
64394;BMP280;50712;49.506;10.400;2022-10-16T02:58:07;97931.56;;;18.72
64394;BMP280;50712;49.506;10.400;2022-10-16T02:58:37;97934.34;;;18.72
64394;BMP280;50712;49.506;10.400;2022-10-16T02:59:07;97941.88;;;18.72
64394;BMP280;50712;49.506;10.400;2022-10-16T02:59:38;97936.38;;;18.72
64394;BMP280;50712;49.506;10.400;2022-10-16T03:00:09;97941.13;;;18.71
64394;BMP280;50712;49.506;10.400;2022-10-16T03:00:43;97941.88;;;18.72
64394;BMP280;50712;49.506;10.400;2022-10-16T03:01:13;97943.88;;;18.71
64394;BMP280;50712;49.506;10.400;2022-10-16T03:01:44;97954.16;;;18.71
64394;BMP280;50712;49.506;10.400;2022-10-16T03:02:14;97953.41;;;18.70
64394;BMP280;50712;49.506;10.400;2022-10-16T03:02:45;97951.41;;;18.71
64394;BMP280;50712;49.506;10.400;2022-10-16T03:03:16;97943.13;;;18.71
64394;BMP280;50712;49.506;10.400;2022-10-16T03:03:46;97955.41;;;18.69
64394;BMP280;50712;49.506;10.400;2022-10-16T03:04:17;97956.94;;;18.71
64394;BMP280;50712;49.506;10.400;2022-10-16T03:04:47;97952.66;;;18.69
64394;BMP280;50712;49.506;10.400;2022-10-16T03:05:17;97952.66;;;18.69
64394;BMP280;50712;49.506;10.400;2022-10-16T03:05:48;97959.44;;;18.68
64394;BMP280;50712;49.506;10.400;2022-10-16T03:06:18;97962.91;;;18.69
64394;BMP280;50712;49.506;10.400;2022-10-16T03:06:49;97955.41;;;18.69
64394;BMP280;50712;49.506;10.400;2022-10-16T03:07:19;97957.41;;;18.69
64394;BMP280;50712;49.506;10.400;2022-10-16T03:07:49;97951.88;;;18.69
64394;BMP280;50712;49.506;10.400;2022-10-16T03:08:20;97949.13;;;18.69
64394;BMP280;50712;49.506;10.400;2022-10-16T03:08:53;97951.16;;;18.68
64394;BMP280;50712;49.506;10.400;2022-10-16T03:09:23;97951.88;;;18.69
64394;BMP280;50712;49.506;10.400;2022-10-16T03:09:54;97948.41;;;18.68
64394;BMP280;50712;49.506;10.400;2022-10-16T03:10:25;97946.38;;;18.69
64394;BMP280;50712;49.506;10.400;2022-10-16T03:10:55;97951.88;;;18.69
64394;BMP280;50712;49.506;10.400;2022-10-16T03:11:26;97946.38;;;18.69
64394;BMP280;50712;49.506;10.400;2022-10-16T03:11:56;97955.41;;;18.69
64394;BMP280;50712;49.506;10.400;2022-10-16T03:12:27;97946.38;;;18.69
64394;BMP280;50712;49.506;10.400;2022-10-16T03:12:57;97942.13;;;18.68
64394;BMP280;50712;49.506;10.400;2022-10-16T03:13:28;97951.88;;;18.69
64394;BMP280;50712;49.506;10.400;2022-10-16T03:13:58;97949.13;;;18.69
64394;BMP280;50712;49.506;10.400;2022-10-16T03:14:28;97944.38;;;18.69
64394;BMP280;50712;49.506;10.400;2022-10-16T03:14:59;97947.13;;;18.69
64394;BMP280;50712;49.506;10.400;2022-10-16T03:15:29;97941.59;;;18.69
64394;BMP280;50712;49.506;10.400;2022-10-16T03:16:00;97943.59;;;18.69
64394;BMP280;50712;49.506;10.400;2022-10-16T03:16:30;97951.88;;;18.69
64394;BMP280;50712;49.506;10.400;2022-10-16T03:17:00;97952.66;;;18.69
64394;BMP280;50712;49.506;10.400;2022-10-16T03:17:31;97948.66;;;18.71
64394;BMP280;50712;49.506;10.400;2022-10-16T03:18:01;97946.38;;;18.69
64394;BMP280;50712;49.506;10.400;2022-10-16T03:18:32;97942.38;;;18.70
64394;BMP280;50712;49.506;10.400;2022-10-16T03:19:02;97950.66;;;18.70
64394;BMP280;50712;49.506;10.400;2022-10-16T03:19:33;97947.88;;;18.70
64394;BMP280;50712;49.506;10.400;2022-10-16T03:20:03;97940.84;;;18.69
64394;BMP280;50712;49.506;10.400;2022-10-16T03:20:34;97939.59;;;18.70
64394;BMP280;50712;49.506;10.400;2022-10-16T03:21:05;97947.13;;;18.69
64394;BMP280;50712;49.506;10.400;2022-10-16T03:21:35;97941.59;;;18.69